Anzahl Datensätze: 48
min. Temperatur: 10.6 °C
max. Temperatur: 17.2 °C
max. Windgeschwindigkeit: 27.4 km/h
Niederschlagsumme: 0.8 mm
| Datum |
Zeit |
Temp °C |
Feuchte % |
Taupunkt °C |
Luftdruck hPa |
Wind km/h |
Windrichtung |
Strahlung w/m² |
Niederschlag mm |
|---|---|---|---|---|---|---|---|---|---|
| 27.05.2025 | 00:00 | 13.3 | 80 | 9.9 | 1021.3 | 0.0 | WNW | 0 | 0.0 |
| 27.05.2025 | 00:30 | 13.2 | 83 | 10.4 | 1021.2 | 0.0 | WNW | 0 | 0.0 |
| 27.05.2025 | 01:00 | 13.0 | 83 | 10.2 | 1021.0 | 0.0 | WNW | 0 | 0.0 |
| 27.05.2025 | 01:30 | 12.6 | 83 | 9.8 | 1021.1 | 1.4 | WNW | 0 | 0.0 |
| 27.05.2025 | 02:00 | 12.3 | 83 | 9.5 | 1021.2 | 0.0 | WNW | 0 | 0.0 |
| 27.05.2025 | 02:30 | 12.1 | 84 | 9.5 | 1021.1 | 0.0 | WNW | 0 | 0.0 |
| 27.05.2025 | 03:00 | 12.1 | 86 | 9.8 | 1020.8 | 0.0 | WNW | 0 | 0.0 |
| 27.05.2025 | 03:30 | 11.6 | 86 | 9.3 | 1020.5 | 0.0 | WNW | 0 | 0.0 |
| 27.05.2025 | 04:00 | 11.2 | 86 | 8.9 | 1020.4 | 0.0 | WNW | 0 | 0.0 |
| 27.05.2025 | 04:30 | 10.8 | 87 | 8.7 | 1020.3 | 0.0 | WNW | 0 | 0.0 |
| 27.05.2025 | 05:00 | 10.7 | 88 | 8.8 | 1020.1 | 0.0 | WNW | 0 | 0.0 |
| 27.05.2025 | 05:30 | 10.6 | 89 | 8.9 | 1020.7 | 0.0 | WNW | 0 | 0.0 |
| 27.05.2025 | 06:00 | 10.8 | 90 | 9.2 | 1020.2 | 0.0 | WNW | 0 | 0.0 |
| 27.05.2025 | 06:30 | 11.0 | 90 | 9.4 | 1020.4 | 0.0 | WNW | 25 | 0.0 |
| 27.05.2025 | 07:00 | 11.3 | 91 | 9.9 | 1020.3 | 0.0 | WNW | 47 | 0.0 |
| 27.05.2025 | 07:30 | 11.7 | 86 | 9.4 | 1020.5 | 1.4 | WNW | 49 | 0.0 |
| 27.05.2025 | 08:00 | 12.3 | 83 | 9.5 | 1020.5 | 3.2 | NO | 65 | 0.0 |
| 27.05.2025 | 08:30 | 13.1 | 82 | 10.1 | 1020.6 | 3.2 | W | 144 | 0.0 |
| 27.05.2025 | 09:00 | 13.7 | 81 | 10.5 | 1020.7 | 3.2 | NNO | 248 | 0.0 |
| 27.05.2025 | 09:30 | 16.1 | 73 | 11.3 | 1020.7 | 3.2 | NO | 399 | 0.0 |
| 27.05.2025 | 10:00 | 16.2 | 70 | 10.7 | 1020.7 | 7.9 | NO | 584 | 0.0 |
| 27.05.2025 | 10:30 | 16.2 | 70 | 10.7 | 1020.6 | 4.7 | NW | 320 | 0.0 |
| 27.05.2025 | 11:00 | 16.4 | 68 | 10.5 | 1020.8 | 6.5 | NO | 181 | 0.0 |
| 27.05.2025 | 11:30 | 16.1 | 69 | 10.4 | 1020.7 | 6.5 | NO | 207 | 0.0 |
| 27.05.2025 | 12:00 | 16.8 | 68 | 10.9 | 1020.9 | 6.5 | NO | 258 | 0.0 |
| 27.05.2025 | 12:30 | 16.7 | 68 | 10.8 | 1020.9 | 6.5 | NO | 127 | 0.0 |
| 27.05.2025 | 13:00 | 16.5 | 69 | 10.8 | 1020.9 | 7.9 | NNW | 258 | 0.0 |
| 27.05.2025 | 13:30 | 17.2 | 69 | 11.5 | 1020.8 | 6.5 | NO | 831 | 0.0 |
| 27.05.2025 | 14:00 | 17.2 | 69 | 11.5 | 1020.7 | 7.9 | NO | 258 | 0.0 |
| 27.05.2025 | 14:30 | 16.6 | 72 | 11.5 | 1020.9 | 7.9 | WSW | 221 | 0.0 |
| 27.05.2025 | 15:00 | 16.2 | 75 | 11.8 | 1020.7 | 6.5 | WNW | 192 | 0.0 |
| 27.05.2025 | 15:30 | 16.2 | 75 | 11.8 | 1020.7 | 9.7 | N | 207 | 0.0 |
| 27.05.2025 | 16:00 | 16.6 | 75 | 12.1 | 1020.7 | 6.5 | NO | 221 | 0.0 |
| 27.05.2025 | 16:30 | 16.2 | 77 | 12.2 | 1020.7 | 6.5 | NNO | 72 | 0.0 |
| 27.05.2025 | 17:00 | 15.8 | 79 | 12.2 | 1020.6 | 4.7 | NO | 49 | 0.0 |
| 27.05.2025 | 17:30 | 15.6 | 82 | 12.5 | 1020.5 | 4.7 | NO | 77 | 0.0 |
| 27.05.2025 | 18:00 | 15.4 | 84 | 12.7 | 1020.3 | 4.7 | WNW | 93 | 0.0 |
| 27.05.2025 | 18:30 | 15.3 | 85 | 12.8 | 1020.0 | 4.7 | W | 60 | 0.0 |
| 27.05.2025 | 19:00 | 15.3 | 86 | 13.0 | 1019.7 | 4.7 | W | 37 | 0.0 |
| 27.05.2025 | 19:30 | 15.2 | 87 | 13.0 | 1019.7 | 3.2 | NO | 39 | 0.0 |
| 27.05.2025 | 20:00 | 14.9 | 88 | 12.9 | 1019.6 | 4.7 | NO | 25 | 0.0 |
| 27.05.2025 | 20:30 | 14.8 | 88 | 12.8 | 1019.4 | 6.5 | NO | 0 | 0.0 |
| 27.05.2025 | 21:00 | 14.8 | 88 | 12.8 | 1019.4 | 4.7 | NO | 5 | 0.0 |
| 27.05.2025 | 21:30 | 14.7 | 89 | 12.9 | 1019.3 | 4.7 | NNW | 0 | 0.2 |
| 27.05.2025 | 22:00 | 14.7 | 90 | 13.1 | 1019.2 | 4.7 | NO | 0 | 0.2 |
| 27.05.2025 | 22:30 | 14.4 | 91 | 12.9 | 1019.4 | 4.7 | NO | 0 | 0.6 |
| 27.05.2025 | 23:00 | 14.3 | 92 | 13.0 | 1019.3 | 4.7 | NO | 0 | 0.6 |
| 27.05.2025 | 23:30 | 14.3 | 92 | 13.0 | 1018.9 | 6.5 | NO | 0 | 0.8 |